createdAt,value
2022-08-03T00:03:15.344Z,63.89355
2022-08-03T00:08:15.044Z,63.80859
2022-08-03T00:13:15.289Z,64.08691
2022-08-03T00:18:15.173Z,64.43652
2022-08-03T00:23:15.085Z,64.25293
2022-08-03T00:28:15.737Z,64.3623
2022-08-03T00:33:15.028Z,64.13965
2022-08-03T00:38:15.003Z,63.71777
2022-08-03T00:43:15.087Z,63.73535
2022-08-03T00:48:19.650Z,64.66406
2022-08-03T00:53:15.928Z,64.53711
2022-08-03T00:58:15.142Z,64.60059
2022-08-03T01:03:16.121Z,64.73438
2022-08-03T01:08:20.252Z,64.83301
2022-08-03T01:14:01.063Z,65.40723
2022-08-03T01:18:18.406Z,64.63281
2022-08-03T01:23:28.961Z,64.35449
2022-08-03T01:28:26.894Z,64.33594
2022-08-03T01:33:19.451Z,64.54785
2022-08-03T01:38:16.279Z,64.18066
2022-08-03T01:44:28.544Z,63.99414
2022-08-03T01:48:16.465Z,64.18066
2022-08-03T01:53:18.167Z,64.04297
2022-08-03T01:58:17.439Z,64.02637
2022-08-03T02:03:17.539Z,64.18164
2022-08-03T02:08:16.731Z,63.99609
2022-08-03T02:13:15.652Z,64.3291
2022-08-03T02:18:15.416Z,64.13184
2022-08-03T02:23:15.025Z,64.18164
2022-08-03T02:28:15.801Z,64.34961
2022-08-03T02:33:17.843Z,64.2334
2022-08-03T02:38:16.449Z,64.7832
2022-08-03T02:43:19.726Z,64.50879
2022-08-03T02:48:15.531Z,64.85645
2022-08-03T02:53:16.242Z,64.94336
2022-08-03T02:58:15.502Z,64.84863
2022-08-03T03:03:15.065Z,65.36816
2022-08-03T03:08:18.541Z,64.81934
2022-08-03T03:13:15.660Z,65.20898
2022-08-03T03:18:18.878Z,65.69727
2022-08-03T03:23:15.314Z,65.07031
2022-08-03T03:28:15.210Z,65.50781
2022-08-03T03:33:16.038Z,65.94824
2022-08-03T03:38:15.136Z,65.9668
2022-08-03T03:43:15.761Z,67.57422
2022-08-03T03:48:16.257Z,66.7998
2022-08-03T03:53:17.218Z,67.35645
2022-08-03T03:58:14.982Z,67.10449
2022-08-03T04:03:15.732Z,66.53711
2022-08-03T04:08:28.982Z,66.44043
2022-08-03T04:13:15.980Z,66.91602
2022-08-03T04:18:17.609Z,66.51465
2022-08-03T04:23:15.913Z,66.61816
2022-08-03T04:28:30.468Z,66.91211
2022-08-03T04:33:15.164Z,66.86523
2022-08-03T04:38:17.261Z,66.48438
2022-08-03T04:43:16.716Z,66.75879
2022-08-03T04:48:15.011Z,67.14941
2022-08-03T04:53:15.038Z,67.79004
2022-08-03T04:58:15.357Z,67.46094
2022-08-03T05:03:20.274Z,67.59473
2022-08-03T05:08:14.916Z,67.63672
2022-08-03T05:13:15.047Z,68.59961
2022-08-03T05:18:14.952Z,67.48926
2022-08-03T05:23:15.117Z,68.29297
2022-08-03T05:28:14.934Z,68.69141
2022-08-03T05:33:14.908Z,69.77441
2022-08-03T05:38:14.895Z,71.8291
2022-08-03T05:43:16.516Z,71.16309
2022-08-03T05:48:14.954Z,70.73535
2022-08-03T05:53:14.972Z,70.25977
2022-08-03T05:58:14.891Z,69.5957
2022-08-03T06:03:14.986Z,68.93652
2022-08-03T06:08:15.506Z,69.10059
2022-08-03T06:13:15.623Z,68.97656
2022-08-03T06:18:14.898Z,68.37109
2022-08-03T06:23:16.184Z,67.80176
2022-08-03T06:28:35.314Z,67.40723
2022-08-03T06:33:16.388Z,67.47168
2022-08-03T06:38:14.921Z,67.79004
2022-08-03T06:43:15.309Z,68.03125
2022-08-03T06:48:15.900Z,67.60254
2022-08-03T06:53:18.225Z,67.59473
2022-08-03T06:58:14.965Z,67.46387
2022-08-03T07:03:14.913Z,66.74707
2022-08-03T07:08:15.221Z,67.18164
2022-08-03T07:13:15.133Z,66.83301
2022-08-03T07:18:14.927Z,65.45508
2022-08-03T07:23:18.855Z,63.87598
2022-08-03T07:28:17.811Z,63.40625
2022-08-03T07:33:14.958Z,63.49121
2022-08-03T07:38:16.432Z,63.76465
2022-08-03T07:43:15.065Z,62.98828
2022-08-03T07:48:14.938Z,62.17969
2022-08-03T07:53:15.225Z,61.98438
2022-08-03T07:58:20.632Z,61.79395
2022-08-03T08:03:15.799Z,60.58691
2022-08-03T08:08:16.079Z,59.26074
2022-08-03T08:13:15.040Z,58.3584
2022-08-03T08:18:15.217Z,57.67188
2022-08-03T08:23:41.691Z,57.13281
2022-08-03T08:28:29.061Z,57.25977
2022-08-03T08:33:22.599Z,56.62988
2022-08-03T08:38:14.907Z,56.91113
2022-08-03T08:43:15.278Z,55.9873
2022-08-03T08:48:19.707Z,55.40332
2022-08-03T08:53:17.542Z,54.81641
2022-08-03T08:58:15.039Z,54.59668
2022-08-03T09:03:28.954Z,54.52637
2022-08-03T09:08:19.982Z,54.53809
2022-08-03T09:13:18.061Z,54.09961
2022-08-03T09:18:15.101Z,53.58105
2022-08-03T09:24:00.707Z,53.40234
2022-08-03T09:28:32.338Z,52.93262
2022-08-03T09:33:19.176Z,52.71191
2022-08-03T09:38:19.641Z,51.93262
2022-08-03T09:43:15.112Z,51.4502
2022-08-03T09:48:29.279Z,50.9248
2022-08-03T09:53:14.947Z,50.34375
2022-08-03T09:58:14.962Z,49.96387
2022-08-03T10:03:14.901Z,48.9248
2022-08-03T10:08:19.063Z,48.82422
2022-08-03T10:13:15.627Z,47.5625
2022-08-03T10:18:15.009Z,47.78613
2022-08-03T10:23:15.862Z,47.38672
2022-08-03T10:28:17.358Z,47.28223
2022-08-03T10:33:52.012Z,46.92773
2022-08-03T10:38:20.590Z,46.67871
2022-08-03T10:43:17.147Z,46.77148
2022-08-03T10:48:15.539Z,46.34766
2022-08-03T10:53:16.708Z,45.55664
2022-08-03T10:58:15.163Z,45.79395
2022-08-03T11:03:15.848Z,45.57715
2022-08-03T11:08:38.577Z,45.47949
2022-08-03T11:13:17.340Z,44.24316
2022-08-03T11:18:16.173Z,44.62305
2022-08-03T11:23:15.952Z,43.98828
2022-08-03T11:28:33.401Z,44.44922
2022-08-03T11:33:24.874Z,44.31543
2022-08-03T11:38:24.228Z,43.71582
2022-08-03T11:43:30.432Z,43.87891
2022-08-03T11:48:21.003Z,43.60547
2022-08-03T11:53:17.933Z,43.62695
2022-08-03T11:59:01.177Z,43.12695
2022-08-03T12:03:16.144Z,42.13574
2022-08-03T12:08:15.955Z,42.49219
2022-08-03T12:11:00.135Z,42.1416
2022-08-03T12:14:45.161Z,42.38867
2022-08-03T12:18:59.731Z,41.62305
2022-08-03T12:23:53.922Z,41.15234
2022-08-03T12:26:09.929Z,41.02148
2022-08-03T12:28:54.686Z,41.22656
2022-08-03T12:34:03.493Z,41.1377
2022-08-03T12:38:58.485Z,40.51074
2022-08-03T12:41:17.512Z,40.13965
2022-08-03T12:44:39.300Z,40.23535
2022-08-03T12:49:45.836Z,40.13184
2022-08-03T12:54:35.810Z,39.72656
2022-08-03T12:59:41.240Z,39.79395
2022-08-03T13:04:37.325Z,40.26563
2022-08-03T13:09:45.162Z,40.13086
2022-08-03T13:14:35.936Z,39.91211
2022-08-03T13:19:36.116Z,39.8418
2022-08-03T13:24:36.228Z,39.96582
2022-08-03T13:29:37.466Z,40.28906
2022-08-03T13:34:35.884Z,40.15332
2022-08-03T13:39:57.899Z,40.18555
2022-08-03T13:44:36.757Z,39.83398
2022-08-03T13:49:37.381Z,39.6875
2022-08-03T13:54:35.924Z,39.7168
2022-08-03T13:59:35.754Z,39.48828
2022-08-03T14:04:35.979Z,39.15234
2022-08-03T14:09:35.954Z,39.1416
2022-08-03T14:14:36.108Z,38.66113
2022-08-03T14:19:52.578Z,38.58008
2022-08-03T14:24:36.222Z,38.44824
2022-08-03T14:29:35.808Z,38.60352
2022-08-03T14:34:35.869Z,38.36914
2022-08-03T14:40:00.776Z,38.10449
2022-08-03T14:44:35.792Z,37.72168
2022-08-03T14:50:34.887Z,38.00195
2022-08-03T14:54:35.902Z,37.79785
2022-08-03T14:59:56.127Z,37.50781
2022-08-03T15:04:35.840Z,37.47852
2022-08-03T15:09:38.430Z,37.16895
2022-08-03T15:14:36.001Z,37.08691
2022-08-03T15:20:01.132Z,36.93848
2022-08-03T15:24:36.036Z,37.02637
2022-08-03T15:30:07.284Z,36.34473
2022-08-03T15:34:35.889Z,36.42871
2022-08-03T15:39:59.730Z,36.33887
2022-08-03T15:44:35.795Z,36.64355
2022-08-03T15:49:35.817Z,36.50977
2022-08-03T15:54:35.797Z,36.46387
2022-08-03T15:59:38.589Z,36.27246
2022-08-03T16:04:35.877Z,36.37988
2022-08-03T16:09:43.074Z,36.48535
2022-08-03T16:14:43.373Z,36.36133
2022-08-03T16:19:36.137Z,36.69531
2022-08-03T16:24:35.840Z,36.81934
2022-08-03T16:29:35.813Z,37.06348
2022-08-03T16:34:35.840Z,37.29297
2022-08-03T16:39:37.482Z,37.21582
2022-08-03T16:44:36.317Z,37.18262
2022-08-03T16:49:54.781Z,37.63281
2022-08-03T16:54:35.791Z,37.78906
2022-08-03T16:59:36.170Z,37.8252
2022-08-03T17:04:40.166Z,38.21582
2022-08-03T17:09:38.697Z,38.46191
2022-08-03T17:14:35.892Z,38.68652
2022-08-03T17:19:36.604Z,38.96875
2022-08-03T17:24:41.510Z,39.03613
2022-08-03T17:29:36.866Z,39.0918
2022-08-03T17:34:37.106Z,39.44922
2022-08-03T17:39:57.798Z,39.77246
2022-08-03T17:44:46.193Z,39.67188
2022-08-03T17:49:40.152Z,39.9834
2022-08-03T17:55:50.474Z,40.24805
2022-08-03T17:59:50.602Z,40.57129
2022-08-03T18:04:37.304Z,40.82227
2022-08-03T18:10:03.582Z,40.84863
2022-08-03T18:14:41.632Z,40.21777
2022-08-03T18:20:02.635Z,40.82227
2022-08-03T18:24:35.989Z,41.45996
2022-08-03T18:29:36.930Z,41.91602
2022-08-03T18:34:36.530Z,42.59375
2022-08-03T18:39:49.360Z,42.91211
2022-08-03T18:44:53.577Z,43.2959
2022-08-03T18:49:44.096Z,44.0918
2022-08-03T18:55:01.103Z,44.62793
2022-08-03T18:59:42.742Z,45.06055
2022-08-03T19:04:38.222Z,43.47656
2022-08-03T19:09:40.986Z,43.03418
2022-08-03T19:19:44.581Z,42.98438
2022-08-03T19:24:36.878Z,43.22168
2022-08-03T19:29:58.464Z,43.38867
2022-08-03T19:34:37.366Z,43.60059
2022-08-03T19:39:35.887Z,43.91602
2022-08-03T19:44:38.013Z,44.10449
2022-08-03T19:50:05.128Z,44.42285
2022-08-03T19:54:39.690Z,44.68164
2022-08-03T19:59:42.029Z,44.9209
2022-08-03T20:04:35.788Z,45.20508
2022-08-03T20:09:36.578Z,45.68457
2022-08-03T20:14:36.161Z,45.78223
2022-08-03T20:19:36.190Z,46.0791
2022-08-03T20:24:37.090Z,46.44434
2022-08-03T20:30:05.445Z,46.5332
2022-08-03T20:34:35.809Z,46.77051
2022-08-03T20:39:36.444Z,47.20703
2022-08-03T20:44:35.795Z,47.53906
2022-08-03T20:49:46.294Z,47.61816
2022-08-03T20:54:35.944Z,47.89551
2022-08-03T20:59:47.354Z,47.91504
2022-08-03T21:04:35.666Z,48.16992
2022-08-03T21:09:49.405Z,48.33398
2022-08-03T21:13:10.907Z,42.83594
2022-08-03T21:14:41.371Z,48.70215
2022-08-03T21:19:35.921Z,49.3584
2022-08-03T21:24:37.088Z,49.11816
2022-08-03T21:29:35.991Z,49.16602
2022-08-03T21:34:36.086Z,49.29395
2022-08-03T21:39:36.025Z,49.62988
2022-08-03T21:44:35.722Z,49.63281
2022-08-03T21:50:02.683Z,50.00488
2022-08-03T21:54:38.248Z,49.83594
2022-08-03T21:59:38.792Z,50.16113
2022-08-03T22:04:55.275Z,50.02832
2022-08-03T22:09:36.062Z,50.19043
2022-08-03T22:14:36.051Z,50.09863
2022-08-03T22:19:35.814Z,50.28809
2022-08-03T22:24:35.863Z,50.57715
2022-08-03T22:29:36.675Z,50.69531
2022-08-03T22:34:36.178Z,50.65723
2022-08-03T22:39:35.802Z,51.0957
2022-08-03T22:44:35.965Z,52.2959
2022-08-03T22:49:36.069Z,51.54395
2022-08-03T22:54:35.836Z,51.71191
2022-08-03T22:59:41.127Z,51.71777
2022-08-03T23:04:36.321Z,52.48047
2022-08-03T23:09:36.527Z,51.98242
2022-08-03T23:14:40.136Z,52.08203
2022-08-03T23:19:41.678Z,52.60059
2022-08-03T23:24:37.924Z,52.11523
2022-08-03T23:29:37.597Z,52.13184
2022-08-03T23:34:47.788Z,52.27637
2022-08-03T23:39:36.874Z,52.79785
2022-08-03T23:44:41.154Z,52.73633
2022-08-03T23:49:36.138Z,52.78809
2022-08-03T23:54:40.468Z,53.83496
2022-08-03T23:59:42.056Z,53.80664
